createdAt,value
2018-11-14T00:00:22.156Z,5.53
2018-11-14T00:02:51.217Z,6.23
2018-11-14T00:05:20.028Z,5.50
2018-11-14T00:07:48.896Z,5.55
2018-11-14T00:10:18.164Z,5.70
2018-11-14T00:12:46.545Z,5.60
2018-11-14T00:15:16.810Z,6.33
2018-11-14T00:17:46.490Z,5.83
2018-11-14T00:20:15.353Z,5.73
2018-11-14T00:22:45.488Z,5.60
2018-11-14T00:25:14.203Z,5.62
2018-11-14T00:27:43.001Z,6.43
2018-11-14T00:30:28.382Z,6.57
2018-11-14T00:32:57.149Z,5.70
2018-11-14T00:35:25.850Z,6.12
2018-11-14T00:37:54.679Z,6.72
2018-11-14T00:40:23.512Z,5.87
2018-11-14T00:42:52.330Z,5.70
2018-11-14T00:45:22.511Z,6.67
2018-11-14T00:47:51.619Z,6.70
2018-11-14T00:50:21.024Z,7.10
2018-11-14T00:52:49.945Z,7.10
2018-11-14T00:55:19.862Z,6.73
2018-11-14T00:57:49.454Z,6.57
2018-11-14T01:00:19.723Z,6.50
2018-11-14T01:02:48.416Z,7.27
2018-11-14T01:05:17.756Z,6.77
2018-11-14T01:07:46.652Z,6.50
2018-11-14T01:10:16.897Z,7.53
2018-11-14T01:12:47.164Z,7.50
2018-11-14T01:15:17.542Z,7.58
2018-11-14T01:17:46.316Z,7.43
2018-11-14T01:20:17.575Z,8.13
2018-11-14T01:22:58.007Z,7.73
2018-11-14T01:25:26.906Z,7.70
2018-11-14T01:27:55.688Z,7.30
2018-11-14T01:30:25.129Z,7.40
2018-11-14T01:32:57.459Z,7.60
2018-11-14T01:35:26.166Z,7.43
2018-11-14T01:37:54.875Z,7.15
2018-11-14T01:40:25.127Z,7.63
2018-11-14T01:42:55.165Z,7.28
2018-11-14T01:45:23.971Z,8.00
2018-11-14T01:47:53.042Z,7.93
2018-11-14T01:50:21.752Z,8.00
2018-11-14T01:52:50.474Z,7.95
2018-11-14T01:55:20.778Z,8.77
2018-11-14T01:57:49.491Z,8.87
2018-11-14T02:00:19.966Z,8.30
2018-11-14T02:02:48.740Z,8.08
2018-11-14T02:05:17.534Z,8.33
2018-11-14T02:07:46.286Z,7.62
2018-11-14T02:10:16.551Z,8.45
2018-11-14T02:12:45.654Z,8.23
2018-11-14T02:15:19.709Z,9.33
2018-11-14T02:17:48.428Z,7.97
2018-11-14T02:20:17.143Z,9.90
2018-11-14T02:22:46.321Z,9.25
2018-11-14T02:25:15.690Z,9.50
2018-11-14T02:27:44.453Z,9.73
2018-11-14T02:30:15.559Z,10.37
2018-11-14T02:32:44.309Z,10.20
2018-11-14T02:35:13.081Z,10.08
2018-11-14T02:37:43.087Z,10.93
2018-11-14T02:40:16.359Z,10.93
2018-11-14T02:42:45.251Z,10.25
2018-11-14T02:45:14.431Z,10.25
2018-11-14T02:47:43.169Z,11.47
2018-11-14T02:50:13.732Z,11.13
2018-11-14T02:52:42.483Z,10.33
2018-11-14T02:55:12.510Z,10.82
2018-11-14T02:57:41.454Z,10.90
2018-11-14T03:00:13.100Z,11.63
2018-11-14T03:02:42.350Z,11.90
2018-11-14T03:05:11.110Z,12.53
2018-11-14T03:07:39.839Z,11.73
2018-11-14T03:10:12.247Z,11.78
2018-11-14T03:12:41.090Z,11.77
2018-11-14T03:15:13.125Z,12.73
2018-11-14T03:17:41.923Z,12.27
2018-11-14T03:20:13.145Z,12.50
2018-11-14T03:22:42.027Z,13.50
2018-11-14T03:25:11.870Z,13.37
2018-11-14T03:27:40.602Z,12.60
2018-11-14T03:30:11.694Z,13.23
2018-11-14T03:32:40.905Z,14.23
2018-11-14T03:35:10.398Z,13.73
2018-11-14T03:37:39.341Z,13.85
2018-11-14T03:40:09.944Z,13.97
2018-11-14T03:42:39.278Z,13.32
2018-11-14T03:45:09.502Z,13.80
2018-11-14T03:47:39.474Z,14.07
2018-11-14T03:50:08.674Z,13.32
2018-11-14T03:52:37.511Z,14.10
2018-11-14T03:55:06.576Z,14.53
2018-11-14T03:57:35.279Z,12.73
2018-11-14T04:00:05.026Z,13.00
2018-11-14T04:02:33.733Z,13.90
2018-11-14T04:05:02.410Z,13.63
2018-11-14T04:07:31.216Z,12.77
2018-11-14T04:09:59.876Z,14.97
2018-11-14T04:12:28.607Z,13.87
2018-11-14T04:14:57.397Z,14.43
2018-11-14T04:17:26.105Z,14.13
2018-11-14T04:19:54.995Z,14.30
2018-11-14T04:22:23.733Z,16.27
2018-11-14T04:24:52.401Z,15.45
2018-11-14T04:27:21.089Z,16.10
2018-11-14T04:29:49.812Z,16.25
2018-11-14T04:32:18.477Z,16.55
2018-11-14T04:34:47.211Z,15.23
2018-11-14T04:37:16.039Z,15.43
2018-11-14T04:39:44.682Z,17.92
2018-11-14T04:42:13.374Z,19.05
2018-11-14T04:44:42.143Z,17.37
2018-11-14T04:47:10.867Z,22.27
2018-11-14T04:49:39.583Z,22.83
2018-11-14T04:52:08.607Z,22.33
2018-11-14T04:54:37.326Z,25.07
2018-11-14T04:57:06.180Z,23.87
2018-11-14T04:59:35.019Z,25.77
2018-11-14T05:02:03.708Z,25.80
2018-11-14T05:04:32.415Z,31.27
2018-11-14T05:07:01.238Z,28.77
2018-11-14T05:09:29.961Z,29.60
2018-11-14T05:11:58.728Z,28.27
2018-11-14T05:14:27.498Z,26.83
2018-11-14T05:16:56.225Z,31.97
2018-11-14T05:19:25.142Z,28.55
2018-11-14T05:21:54.217Z,29.52
2018-11-14T05:24:22.965Z,29.30
2018-11-14T05:26:51.786Z,29.40
2018-11-14T05:29:20.618Z,29.60
2018-11-14T05:31:49.369Z,32.72
2018-11-14T05:34:18.061Z,32.25
2018-11-14T05:36:46.817Z,32.27
2018-11-14T05:39:15.551Z,31.17
2018-11-14T05:41:44.333Z,32.97
2018-11-14T05:44:13.066Z,36.63
2018-11-14T05:46:41.781Z,32.07
2018-11-14T05:49:10.492Z,30.52
2018-11-14T05:51:39.573Z,34.63
2018-11-14T05:54:08.348Z,32.13
2018-11-14T05:56:37.061Z,33.20
2018-11-14T05:59:05.799Z,32.17
2018-11-14T06:01:34.565Z,31.20
2018-11-14T06:04:10.582Z,33.73
2018-11-14T06:06:39.467Z,33.83
2018-11-14T06:09:11.418Z,31.73
2018-11-14T06:11:40.180Z,34.10
2018-11-14T06:14:09.698Z,33.95
2018-11-14T06:21:33.507Z,36.17
2018-11-14T06:24:02.364Z,33.20
2018-11-14T06:26:31.105Z,34.87
2018-11-14T06:29:00.121Z,34.20
2018-11-14T06:31:28.834Z,33.93
2018-11-14T06:33:57.599Z,33.30
2018-11-14T06:36:26.374Z,31.93
2018-11-14T06:38:55.129Z,36.37
2018-11-14T06:41:23.827Z,35.87
2018-11-14T06:43:52.543Z,35.30
2018-11-14T06:46:21.210Z,35.30
2018-11-14T06:48:49.894Z,35.43
2018-11-14T06:51:18.939Z,32.28
2018-11-14T06:53:47.650Z,35.60
2018-11-14T06:56:16.367Z,33.10
2018-11-14T06:58:45.149Z,34.93
2018-11-14T07:01:13.838Z,35.37
2018-11-14T07:03:42.584Z,31.75
2018-11-14T07:06:11.626Z,34.00
2018-11-14T07:08:40.471Z,35.53
2018-11-14T07:11:09.827Z,32.98
2018-11-14T07:13:38.894Z,34.40
2018-11-14T07:16:07.660Z,31.97
2018-11-14T07:18:36.410Z,34.27
2018-11-14T07:21:05.312Z,30.43
2018-11-14T07:23:34.171Z,28.80
2018-11-14T07:26:03.117Z,29.23
2018-11-14T07:28:31.995Z,29.40
2018-11-14T07:31:00.796Z,27.13
2018-11-14T07:33:29.984Z,27.82
2018-11-14T07:35:58.850Z,27.97
2018-11-14T07:38:49.861Z,30.43
2018-11-14T07:41:22.146Z,29.23
2018-11-14T07:43:50.875Z,29.43
2018-11-14T07:46:19.804Z,28.70
2018-11-14T07:48:49.456Z,29.67
2018-11-14T07:51:18.246Z,29.87
2018-11-14T07:53:47.009Z,29.97
2018-11-14T07:56:16.051Z,29.23
2018-11-14T07:58:44.757Z,28.15
2018-11-14T08:01:13.613Z,29.97
2018-11-14T08:03:42.992Z,27.87
2018-11-14T08:06:12.490Z,29.83
2018-11-14T08:08:41.302Z,29.73
2018-11-14T08:11:10.500Z,29.90
2018-11-14T08:13:41.609Z,29.15
2018-11-14T08:16:10.378Z,29.83
2018-11-14T08:18:39.877Z,29.90
2018-11-14T08:21:08.711Z,29.53
2018-11-14T08:23:37.414Z,27.97
2018-11-14T08:26:07.075Z,27.27
2018-11-14T08:28:35.854Z,26.10
2018-11-14T08:31:04.734Z,27.67
2018-11-14T08:33:33.570Z,25.40
2018-11-14T08:36:02.390Z,26.53
2018-11-14T08:38:31.222Z,28.80
2018-11-14T08:41:00.274Z,27.03
2018-11-14T08:43:29.005Z,27.90
2018-11-14T08:45:57.720Z,27.73
2018-11-14T08:48:26.873Z,26.87
2018-11-14T08:50:55.607Z,28.10
2018-11-14T08:53:24.345Z,27.87
2018-11-14T08:55:53.236Z,28.87
2018-11-14T08:58:21.958Z,26.10
2018-11-14T09:00:50.681Z,27.43
2018-11-14T09:03:19.574Z,28.67
2018-11-14T09:05:48.302Z,28.45
2018-11-14T09:08:17.075Z,27.40
2018-11-14T09:10:45.892Z,29.23
2018-11-14T09:13:15.779Z,29.52
2018-11-14T09:15:44.633Z,31.53
2018-11-14T09:18:13.612Z,31.93
2018-11-14T09:20:42.650Z,30.43
2018-11-14T09:23:11.969Z,30.37
2018-11-14T09:25:41.752Z,30.67
2018-11-14T09:28:10.782Z,28.60
2018-11-14T09:30:39.944Z,27.32
2018-11-14T09:33:09.171Z,25.60
2018-11-14T09:35:37.845Z,26.97
2018-11-14T09:38:06.623Z,27.90
2018-11-14T09:40:35.515Z,25.93
2018-11-14T09:43:04.371Z,26.77
2018-11-14T09:45:33.193Z,26.30
2018-11-14T09:48:01.958Z,28.50
2018-11-14T09:50:31.696Z,30.93
2018-11-14T09:53:02.798Z,32.63
2018-11-14T09:55:31.520Z,31.70
2018-11-14T09:58:00.284Z,29.43
2018-11-14T10:00:30.364Z,30.17
2018-11-14T10:03:03.067Z,27.70
2018-11-14T10:05:31.953Z,29.00
2018-11-14T10:08:00.691Z,28.83
2018-11-14T10:10:29.389Z,26.63
2018-11-14T10:12:58.283Z,25.47
2018-11-14T10:15:27.082Z,24.27
2018-11-14T10:17:55.841Z,27.17
2018-11-14T10:20:25.753Z,26.25
2018-11-14T10:22:54.507Z,25.62
2018-11-14T10:25:23.303Z,25.27
2018-11-14T10:27:55.295Z,27.80
2018-11-14T10:30:28.357Z,28.00
2018-11-14T10:32:57.515Z,28.10
2018-11-14T10:35:27.954Z,27.57
2018-11-14T10:37:57.122Z,31.97
2018-11-14T10:40:27.939Z,27.30
2018-11-14T10:42:56.894Z,26.70
2018-11-14T10:45:26.469Z,27.17
2018-11-14T10:47:55.497Z,24.02
2018-11-14T10:50:26.281Z,23.32
2018-11-14T10:52:55.044Z,23.05
2018-11-14T10:55:24.197Z,26.90
2018-11-14T10:57:53.436Z,29.10
2018-11-14T11:00:28.364Z,25.72
2018-11-14T11:03:02.860Z,25.60
2018-11-14T11:05:36.909Z,23.67
2018-11-14T11:08:11.039Z,23.97
2018-11-14T11:10:45.367Z,24.47
2018-11-14T11:13:19.141Z,24.53
2018-11-14T11:15:54.244Z,25.02
2018-11-14T11:18:29.734Z,24.47
2018-11-14T11:20:58.719Z,24.93
2018-11-14T11:23:28.011Z,24.00
2018-11-14T11:25:59.998Z,24.47
2018-11-14T11:28:30.042Z,23.10
2018-11-14T11:30:59.090Z,24.77
2018-11-14T11:33:28.103Z,21.55
2018-11-14T11:35:56.908Z,22.63
2018-11-14T11:38:25.769Z,24.50
2018-11-14T11:40:54.566Z,22.43
2018-11-14T11:43:23.390Z,24.75
2018-11-14T11:45:56.090Z,25.35
2018-11-14T11:48:24.822Z,24.77
2018-11-14T11:50:53.592Z,25.60
2018-11-14T11:53:22.447Z,25.48
2018-11-14T11:55:51.236Z,24.32
2018-11-14T11:58:19.974Z,24.40
2018-11-14T12:00:48.909Z,25.43
2018-11-14T12:03:17.582Z,26.80
2018-11-14T12:05:46.678Z,25.03
2018-11-14T12:08:15.495Z,26.27
2018-11-14T12:10:44.493Z,24.80
2018-11-14T12:13:13.315Z,25.80
2018-11-14T12:15:42.081Z,26.17
2018-11-14T12:18:11.210Z,26.60
2018-11-14T12:20:40.445Z,26.33
2018-11-14T12:23:10.493Z,25.80
2018-11-14T12:25:39.338Z,24.32
2018-11-14T12:28:08.073Z,25.87
2018-11-14T12:30:37.993Z,27.33
2018-11-14T12:33:07.238Z,27.07
2018-11-14T12:35:36.192Z,27.37
2018-11-14T12:38:05.275Z,24.83
2018-11-14T12:40:34.066Z,25.90
2018-11-14T12:43:02.870Z,26.07
2018-11-14T12:45:31.838Z,26.07
2018-11-14T12:48:00.631Z,25.37
2018-11-14T12:50:29.437Z,26.33
2018-11-14T12:52:58.511Z,26.67
2018-11-14T12:55:27.299Z,25.15
2018-11-14T12:57:56.368Z,27.23
2018-11-14T13:00:25.564Z,26.07
2018-11-14T13:02:54.989Z,26.55
2018-11-14T13:05:23.757Z,27.87
2018-11-14T13:07:52.975Z,26.23
2018-11-14T13:10:21.816Z,26.80
2018-11-14T13:12:51.170Z,26.57
2018-11-14T13:15:21.138Z,25.10
2018-11-14T13:17:50.086Z,26.97
2018-11-14T13:20:20.532Z,27.57
2018-11-14T13:22:49.459Z,25.88
2018-11-14T13:25:18.211Z,25.93
2018-11-14T13:27:47.841Z,25.52
2018-11-14T13:30:22.583Z,27.17
2018-11-14T13:32:51.961Z,26.93
2018-11-14T13:35:22.634Z,26.63
2018-11-14T13:37:52.095Z,26.37
2018-11-14T13:40:21.688Z,27.00
2018-11-14T13:42:50.628Z,29.60
2018-11-14T13:45:20.156Z,26.50
2018-11-14T13:47:49.064Z,28.92
2018-11-14T13:50:24.143Z,27.20
2018-11-14T13:52:53.028Z,26.73
2018-11-14T13:55:22.309Z,26.50
2018-11-14T13:57:52.185Z,26.20
2018-11-14T14:00:22.010Z,26.83
2018-11-14T14:02:54.067Z,27.32
2018-11-14T14:05:27.080Z,26.75
2018-11-14T14:08:03.838Z,25.83
2018-11-14T14:10:34.866Z,26.30
2018-11-14T14:13:04.394Z,25.40
2018-11-14T14:15:33.385Z,25.53
2018-11-14T14:18:02.155Z,25.07
2018-11-14T14:20:31.245Z,26.63
2018-11-14T14:23:00.033Z,26.87
2018-11-14T14:25:28.933Z,24.53
2018-11-14T14:27:57.951Z,24.57
2018-11-14T14:30:26.741Z,24.97
2018-11-14T14:32:55.595Z,27.35
2018-11-14T14:35:24.805Z,26.17
2018-11-14T14:37:53.662Z,25.92
2018-11-14T14:40:23.223Z,26.45
2018-11-14T14:42:52.206Z,25.08
2018-11-14T14:45:22.938Z,24.77
2018-11-14T14:47:51.982Z,25.23
2018-11-14T14:50:21.490Z,24.18
2018-11-14T14:52:50.275Z,21.80
2018-11-14T14:55:22.220Z,22.15
2018-11-14T14:57:51.128Z,22.47
2018-11-14T15:00:28.555Z,23.12
2018-11-14T15:02:57.342Z,21.17
2018-11-14T15:05:26.204Z,21.05
2018-11-14T15:07:55.155Z,21.60
2018-11-14T15:10:24.730Z,19.60
2018-11-14T15:12:53.475Z,20.75
2018-11-14T15:15:22.684Z,21.07
2018-11-14T15:17:51.394Z,19.63
2018-11-14T15:20:24.546Z,18.92
2018-11-14T15:22:53.524Z,19.33
2018-11-14T15:25:23.334Z,19.60
2018-11-14T15:27:52.547Z,18.43
2018-11-14T15:30:26.826Z,17.77
2018-11-14T15:32:56.071Z,17.60
2018-11-14T15:35:25.095Z,17.90
2018-11-14T15:37:53.745Z,17.45
2018-11-14T15:40:24.002Z,17.42
2018-11-14T15:42:52.910Z,17.30
2018-11-14T15:45:24.210Z,17.32
2018-11-14T15:47:53.025Z,17.37
2018-11-14T15:50:23.089Z,17.40
2018-11-14T15:52:52.853Z,21.47
2018-11-14T15:55:22.161Z,18.50
2018-11-14T15:57:50.955Z,17.63
2018-11-14T16:00:27.546Z,17.47
2018-11-14T16:02:56.806Z,17.23
2018-11-14T16:05:26.909Z,16.77
2018-11-14T16:07:57.063Z,17.07
2018-11-14T16:10:26.823Z,15.15
2018-11-14T16:12:55.577Z,19.03
2018-11-14T16:15:25.990Z,20.97
2018-11-14T16:17:54.828Z,20.13
2018-11-14T16:20:24.676Z,16.27
2018-11-14T16:22:53.598Z,15.87
2018-11-14T16:25:23.824Z,15.33
2018-11-14T16:27:53.902Z,16.60
2018-11-14T16:30:28.194Z,15.83
2018-11-14T16:32:58.260Z,15.13
2018-11-14T16:35:27.108Z,15.17
2018-11-14T16:37:55.966Z,14.80
2018-11-14T16:40:27.037Z,15.20
2018-11-14T16:42:56.805Z,14.38
2018-11-14T16:45:25.561Z,15.63
2018-11-14T16:47:54.352Z,15.20
2018-11-14T16:50:23.765Z,15.17
2018-11-14T16:52:52.494Z,15.50
2018-11-14T16:55:22.147Z,14.60
2018-11-14T16:57:52.963Z,13.77
2018-11-14T17:00:26.892Z,14.13
2018-11-14T17:02:55.943Z,13.62
2018-11-14T17:05:25.874Z,14.80
2018-11-14T17:07:54.787Z,13.00
2018-11-14T17:10:24.237Z,14.13
2018-11-14T17:12:55.397Z,14.17
2018-11-14T17:15:25.274Z,15.75
2018-11-14T17:17:54.053Z,17.33
2018-11-14T17:20:23.341Z,13.98
2018-11-14T17:22:53.599Z,13.87
2018-11-14T17:25:22.757Z,12.53
2018-11-14T17:27:51.516Z,11.93
2018-11-14T17:30:25.466Z,12.47
2018-11-14T17:32:54.551Z,12.13
2018-11-14T17:35:23.438Z,12.58
2018-11-14T17:37:52.482Z,12.67
2018-11-14T17:40:23.473Z,12.33
2018-11-14T17:42:52.847Z,12.28
2018-11-14T17:45:24.116Z,12.40
2018-11-14T17:47:53.295Z,12.10
2018-11-14T17:50:25.661Z,12.03
2018-11-14T17:52:54.938Z,12.43
2018-11-14T17:55:24.259Z,12.70
2018-11-14T17:57:53.216Z,12.20
2018-11-14T18:00:23.363Z,12.45
2018-11-14T18:02:52.155Z,11.43
2018-11-14T18:05:23.539Z,11.35
2018-11-14T18:07:53.082Z,11.93
2018-11-14T18:10:23.164Z,11.57
2018-11-14T18:12:53.066Z,10.72
2018-11-14T18:15:21.969Z,12.17
2018-11-14T18:17:52.373Z,11.97
2018-11-14T18:20:22.660Z,11.87
2018-11-14T18:22:52.115Z,11.22
2018-11-14T18:25:20.894Z,11.48
2018-11-14T18:27:49.803Z,10.90
2018-11-14T18:30:36.483Z,13.38
2018-11-14T18:33:05.825Z,15.07
2018-11-14T18:35:34.589Z,12.60
2018-11-14T18:38:03.637Z,12.50
2018-11-14T18:40:33.865Z,10.80
2018-11-14T18:43:02.711Z,11.47
2018-11-14T18:45:33.085Z,10.50
2018-11-14T18:48:02.673Z,11.10
2018-11-14T18:50:31.516Z,10.10
2018-11-14T18:53:00.425Z,11.00
2018-11-14T18:55:30.875Z,10.87
2018-11-14T18:58:00.365Z,11.20
2018-11-14T19:00:30.182Z,12.00
2018-11-14T19:02:59.233Z,11.48
2018-11-14T19:05:28.053Z,12.10
2018-11-14T19:07:56.848Z,12.63
2018-11-14T19:10:27.280Z,12.10
2018-11-14T19:12:56.107Z,11.80
2018-11-14T19:15:26.980Z,11.93
2018-11-14T19:17:56.127Z,12.50
2018-11-14T19:20:28.003Z,11.15
2018-11-14T19:22:57.541Z,12.07
2018-11-14T19:25:27.946Z,10.87
2018-11-14T19:27:56.710Z,10.20
2018-11-14T19:30:26.822Z,10.63
2018-11-14T19:32:56.190Z,9.93
2018-11-14T19:35:24.956Z,9.60
2018-11-14T19:37:54.862Z,10.13
2018-11-14T19:40:27.975Z,9.13
2018-11-14T19:42:57.981Z,10.57
2018-11-14T19:45:28.512Z,10.53
2018-11-14T19:47:57.339Z,9.40
2018-11-14T19:50:26.497Z,10.10
2018-11-14T19:52:55.391Z,10.30
2018-11-14T19:55:25.344Z,10.28
2018-11-14T19:57:55.956Z,9.70
2018-11-14T20:00:28.465Z,9.33
2018-11-14T20:02:57.323Z,13.62
2018-11-14T20:05:27.831Z,10.53
2018-11-14T20:07:56.624Z,9.63
2018-11-14T20:10:27.176Z,9.53
2018-11-14T20:12:55.991Z,9.70
2018-11-14T20:15:29.517Z,8.98
2018-11-14T20:17:58.421Z,9.33
2018-11-14T20:20:28.749Z,9.33
2018-11-14T20:22:57.662Z,8.93
2018-11-14T20:25:26.544Z,8.90
2018-11-14T20:27:55.313Z,8.83
2018-11-14T20:30:30.808Z,8.93
2018-11-14T20:33:01.288Z,8.83
2018-11-14T20:35:30.190Z,8.70
2018-11-14T20:37:59.083Z,8.43
2018-11-14T20:40:28.266Z,9.50
2018-11-14T20:42:57.430Z,9.80
2018-11-14T20:45:28.432Z,8.48
2018-11-14T20:47:57.190Z,9.50
2018-11-14T20:50:26.652Z,9.30
2018-11-14T20:52:57.337Z,9.35
2018-11-14T20:55:26.783Z,8.97
2018-11-14T20:57:55.602Z,9.00
2018-11-14T21:00:40.042Z,9.20
2018-11-14T21:03:09.282Z,11.40
2018-11-14T21:05:38.207Z,9.17
2018-11-14T21:08:07.390Z,10.50
2018-11-14T21:10:36.403Z,10.80
2018-11-14T21:13:06.003Z,9.30
2018-11-14T21:15:37.123Z,8.90
2018-11-14T21:18:06.076Z,8.87
2018-11-14T21:20:34.780Z,8.57
2018-11-14T21:23:03.743Z,9.23
2018-11-14T21:25:32.412Z,8.88
2018-11-14T21:28:01.269Z,8.73
2018-11-14T21:30:30.740Z,8.83
2018-11-14T21:32:59.906Z,9.18
2018-11-14T21:35:31.675Z,8.90
2018-11-14T21:38:01.998Z,8.47
2018-11-14T21:40:30.818Z,8.60
2018-11-14T21:43:00.340Z,9.00
2018-11-14T21:45:29.710Z,9.17
2018-11-14T21:48:04.645Z,9.95
2018-11-14T21:50:33.942Z,9.20
2018-11-14T21:53:02.753Z,10.07
2018-11-14T21:55:31.732Z,8.90
2018-11-14T21:58:00.506Z,9.17
2018-11-14T22:00:33.457Z,9.03
2018-11-14T22:03:02.569Z,8.37
2018-11-14T22:05:31.418Z,8.50
2018-11-14T22:08:00.326Z,8.93
2018-11-14T22:10:35.786Z,8.83
2018-11-14T22:13:04.671Z,8.07
2018-11-14T22:15:33.616Z,8.07
2018-11-14T22:18:02.355Z,7.97
2018-11-14T22:20:38.182Z,7.97
2018-11-14T22:23:06.953Z,8.70
2018-11-14T22:25:35.707Z,7.80
2018-11-14T22:28:05.706Z,7.10
2018-11-14T22:30:35.236Z,7.70
2018-11-14T22:33:04.069Z,8.23
2018-11-14T22:35:33.495Z,7.27
2018-11-14T22:38:02.252Z,6.93
2018-11-14T22:40:32.097Z,7.30
2018-11-14T22:43:00.850Z,7.50
2018-11-14T22:45:31.740Z,6.77
2018-11-14T22:48:00.480Z,7.00
2018-11-14T22:50:29.296Z,6.90
2018-11-14T22:52:58.010Z,8.03
2018-11-14T22:55:27.096Z,7.30
2018-11-14T22:57:56.042Z,7.47
2018-11-14T23:00:29.671Z,7.47
2018-11-14T23:03:00.709Z,7.40
2018-11-14T23:05:29.511Z,8.30
2018-11-14T23:07:58.925Z,7.40
2018-11-14T23:10:28.493Z,7.40
2018-11-14T23:12:57.263Z,8.00
2018-11-14T23:15:26.133Z,7.37
2018-11-14T23:17:55.004Z,7.45
2018-11-14T23:20:23.736Z,7.97
2018-11-14T23:22:53.013Z,6.63
2018-11-14T23:25:22.395Z,7.62
2018-11-14T23:27:52.311Z,6.80
2018-11-14T23:30:22.255Z,7.03
2018-11-14T23:32:52.328Z,7.93
2018-11-14T23:35:23.221Z,6.65
2018-11-14T23:37:56.244Z,6.78
2018-11-14T23:40:25.211Z,6.42
2018-11-14T23:42:54.102Z,7.28
2018-11-14T23:45:23.805Z,7.33
2018-11-14T23:47:52.581Z,6.83
2018-11-14T23:50:23.435Z,7.67
2018-11-14T23:52:53.208Z,7.20
2018-11-14T23:55:22.726Z,7.47
2018-11-14T23:57:51.470Z,7.93
